AFL374 UUEE-ULLI
Flight info
| Callsign | AFL374 |
|---|---|
| Flight time | N/A |
| Altitude | 34000 |
| Route | UUEE TOKN3H TOKNU L4 NUDKO T561 ODATI T875 GENPA GENP1V ULLI |
| Aircraft | MD11/H-AEROFLOT/2000 |
Departure
| Time | 2026-05-01 13:34 |
|---|---|
| Airport | Sheremetyevo International Airport (UUEE) |
Arrival
| Time | N/A |
|---|---|
| Airport | Pulkovo Airport (ULLI) |
| Time | Latitude | Longitude | Altitude | Speed | Heading |
|---|---|---|---|---|---|
| 2026-05-01 13:21 | 55.98017 | 37.41833 | 646 ft | 0 kts | 255° |
| 2026-05-01 13:25 | 55.98019 | 37.41846 | 647 ft | 3 kts | 255° |
| 2026-05-01 13:25 | 55.98024 | 37.41878 | 646 ft | 3 kts | 255° |
| 2026-05-01 13:25 | 55.98029 | 37.41912 | 646 ft | 3 kts | 239° |
| 2026-05-01 13:25 | 55.98044 | 37.41938 | 650 ft | 3 kts | 187° |
| 2026-05-01 13:26 | 55.98055 | 37.41939 | 647 ft | 0 kts | 168° |
| 2026-05-01 13:28 | 55.98054 | 37.41940 | 647 ft | 0 kts | 168° |
| 2026-05-01 13:29 | 55.97943 | 37.42008 | 646 ft | 15 kts | 157° |
| 2026-05-01 13:29 | 55.97774 | 37.42098 | 646 ft | 11 kts | 165° |
| 2026-05-01 13:30 | 55.97719 | 37.42428 | 649 ft | 23 kts | 70° |
| 2026-05-01 13:31 | 55.97831 | 37.43142 | 646 ft | 30 kts | 75° |
| 2026-05-01 13:31 | 55.97944 | 37.43967 | 647 ft | 6 kts | 92° |
| 2026-05-01 13:32 | 55.97882 | 37.44062 | 647 ft | 8 kts | 161° |
| 2026-05-01 13:33 | 55.97797 | 37.44070 | 647 ft | 2 kts | 212° |
| 2026-05-01 13:33 | 55.97773 | 37.43967 | 650 ft | 7 kts | 255° |
| 2026-05-01 13:34 | 55.97649 | 37.43136 | 646 ft | 102 kts | 255° |
| 2026-05-01 13:34 | 55.96996 | 37.38967 | 1315 ft | 217 kts | 254° |
| 2026-05-01 13:35 | 55.96011 | 37.33248 | 3377 ft | 269 kts | 254° |
| 2026-05-01 13:35 | 55.95497 | 37.30117 | 4888 ft | 261 kts | 255° |
| 2026-05-01 13:35 | 55.94680 | 37.24259 | 6475 ft | 216 kts | 264° |
| 2026-05-01 13:36 | 55.94327 | 37.21587 | 7767 ft | 220 kts | 255° |
| 2026-05-01 13:36 | 55.93907 | 37.19054 | 9320 ft | 213 kts | 256° |
| 2026-05-01 13:36 | 55.92993 | 37.13204 | 10622 ft | 272 kts | 257° |
| 2026-05-01 13:37 | 55.92466 | 37.09796 | 11278 ft | 296 kts | 258° |
| 2026-05-01 13:37 | 55.92072 | 37.06074 | 11940 ft | 315 kts | 269° |
| 2026-05-01 13:37 | 55.92222 | 37.02090 | 12612 ft | 331 kts | 288° |
| 2026-05-01 13:37 | 55.93138 | 36.98279 | 13314 ft | 342 kts | 308° |
| 2026-05-01 13:38 | 55.96689 | 36.92392 | 14618 ft | 356 kts | 328° |
| 2026-05-01 13:38 | 55.98677 | 36.89826 | 15231 ft | 359 kts | 328° |
| 2026-05-01 13:38 | 56.00711 | 36.87213 | 15853 ft | 362 kts | 328° |
| 2026-05-01 13:39 | 56.02756 | 36.84536 | 16507 ft | 365 kts | 328° |
| 2026-05-01 13:39 | 56.04800 | 36.81808 | 17176 ft | 369 kts | 327° |
| 2026-05-01 13:39 | 56.06860 | 36.79019 | 17865 ft | 373 kts | 327° |
| 2026-05-01 13:39 | 56.08917 | 36.76208 | 18547 ft | 376 kts | 327° |
| 2026-05-01 13:40 | 56.11004 | 36.73339 | 19156 ft | 379 kts | 327° |
| 2026-05-01 13:40 | 56.13105 | 36.70439 | 19779 ft | 382 kts | 327° |
| 2026-05-01 13:40 | 56.15215 | 36.67521 | 20417 ft | 385 kts | 327° |
| 2026-05-01 13:40 | 56.17347 | 36.64565 | 21065 ft | 388 kts | 328° |
| 2026-05-01 13:41 | 56.19488 | 36.61591 | 21689 ft | 390 kts | 329° |
| 2026-05-01 13:41 | 56.21646 | 36.58591 | 22368 ft | 392 kts | 329° |
| 2026-05-01 13:41 | 56.23811 | 36.55578 | 23060 ft | 395 kts | 329° |
| 2026-05-01 13:41 | 56.25990 | 36.52541 | 23766 ft | 398 kts | 329° |
| 2026-05-01 13:42 | 56.28188 | 36.49474 | 24358 ft | 401 kts | 330° |
| 2026-05-01 13:42 | 56.30399 | 36.46383 | 24960 ft | 404 kts | 330° |
| 2026-05-01 13:42 | 56.32622 | 36.43270 | 25573 ft | 406 kts | 330° |
| 2026-05-01 13:42 | 56.34813 | 36.39997 | 26203 ft | 414 kts | 325° |
| 2026-05-01 13:43 | 56.36707 | 36.35961 | 26839 ft | 433 kts | 312° |
| 2026-05-01 13:43 | 56.38133 | 36.31050 | 27505 ft | 450 kts | 303° |
| 2026-05-01 13:43 | 56.39274 | 36.25724 | 28163 ft | 459 kts | 300° |
| 2026-05-01 13:43 | 56.40316 | 36.20241 | 28859 ft | 464 kts | 299° |
| 2026-05-01 13:44 | 56.41359 | 36.14701 | 29573 ft | 467 kts | 300° |
| 2026-05-01 13:44 | 56.42435 | 36.09151 | 30298 ft | 468 kts | 301° |
| 2026-05-01 13:44 | 56.43545 | 36.03614 | 30903 ft | 470 kts | 301° |
| 2026-05-01 13:44 | 56.44726 | 35.98131 | 31518 ft | 463 kts | 306° |
| 2026-05-01 13:45 | 56.46301 | 35.93162 | 32154 ft | 449 kts | 315° |
| 2026-05-01 13:45 | 56.48172 | 35.88718 | 32806 ft | 442 kts | 319° |
| 2026-05-01 13:45 | 56.50164 | 35.84493 | 33219 ft | 441 kts | 321° |
| 2026-05-01 13:45 | 56.52160 | 35.80383 | 33613 ft | 440 kts | 321° |
| 2026-05-01 13:46 | 56.54177 | 35.76200 | 33967 ft | 442 kts | 320° |
| 2026-05-01 13:46 | 56.56201 | 35.71942 | 34162 ft | 451 kts | 320° |
| 2026-05-01 13:46 | 56.58249 | 35.67561 | 34189 ft | 457 kts | 319° |
| 2026-05-01 13:47 | 56.62326 | 35.58652 | 34195 ft | 460 kts | 319° |
| 2026-05-01 13:47 | 56.66383 | 35.49661 | 34197 ft | 459 kts | 319° |
| 2026-05-01 13:48 | 56.70434 | 35.40687 | 34194 ft | 459 kts | 319° |
| 2026-05-01 13:48 | 56.74489 | 35.31703 | 34187 ft | 458 kts | 318° |
| 2026-05-01 13:49 | 56.78529 | 35.22728 | 34194 ft | 458 kts | 318° |
| 2026-05-01 13:49 | 56.82558 | 35.13741 | 34192 ft | 457 kts | 318° |
| 2026-05-01 13:50 | 56.86541 | 35.04823 | 34188 ft | 457 kts | 318° |
| 2026-05-01 13:50 | 56.90608 | 34.95931 | 34189 ft | 451 kts | 323° |
| 2026-05-01 13:51 | 56.95431 | 34.89003 | 34190 ft | 436 kts | 334° |
| 2026-05-01 13:51 | 57.00580 | 34.83151 | 34192 ft | 435 kts | 335° |
| 2026-05-01 13:52 | 57.05710 | 34.77233 | 34195 ft | 436 kts | 334° |
| 2026-05-01 13:52 | 57.10798 | 34.71164 | 34176 ft | 436 kts | 334° |
| 2026-05-01 13:53 | 57.15866 | 34.65035 | 34183 ft | 436 kts | 334° |
| 2026-05-01 13:53 | 57.23469 | 34.55791 | 34187 ft | 437 kts | 333° |
| 2026-05-01 13:54 | 57.28541 | 34.49601 | 34189 ft | 436 kts | 333° |
| 2026-05-01 13:54 | 57.33556 | 34.43459 | 34192 ft | 436 kts | 333° |
| 2026-05-01 13:55 | 57.38575 | 34.37295 | 34192 ft | 436 kts | 333° |
| 2026-05-01 13:55 | 57.43631 | 34.31063 | 34148 ft | 435 kts | 333° |
| 2026-05-01 13:56 | 57.48619 | 34.24892 | 34178 ft | 432 kts | 333° |
| 2026-05-01 13:56 | 57.52816 | 34.19687 | 34185 ft | 431 kts | 332° |
| 2026-05-01 13:57 | 57.57763 | 34.13532 | 34185 ft | 430 kts | 332° |
| 2026-05-01 13:57 | 57.62742 | 34.07280 | 34185 ft | 430 kts | 332° |
| 2026-05-01 13:58 | 57.67696 | 34.01007 | 34182 ft | 430 kts | 332° |
| 2026-05-01 13:58 | 57.72644 | 33.94761 | 34171 ft | 427 kts | 332° |
| 2026-05-01 13:59 | 57.77564 | 33.88551 | 34184 ft | 426 kts | 332° |
| 2026-05-01 13:59 | 57.82476 | 33.82339 | 34186 ft | 425 kts | 332° |
| 2026-05-01 14:00 | 57.87258 | 33.76243 | 34176 ft | 399 kts | 332° |
| 2026-05-01 14:00 | 57.91593 | 33.70018 | 34183 ft | 389 kts | 329° |
| 2026-05-01 14:01 | 57.95798 | 33.63601 | 34181 ft | 389 kts | 328° |
| 2026-05-01 14:01 | 57.99989 | 33.57178 | 34178 ft | 387 kts | 328° |
| 2026-05-01 14:02 | 58.04163 | 33.50788 | 34181 ft | 386 kts | 328° |
| 2026-05-01 14:02 | 58.08311 | 33.44428 | 34180 ft | 387 kts | 328° |
| 2026-05-01 14:03 | 58.12497 | 33.37991 | 34178 ft | 387 kts | 328° |
| 2026-05-01 14:03 | 58.16670 | 33.31554 | 34181 ft | 387 kts | 328° |
| 2026-05-01 14:04 | 58.20834 | 33.25087 | 34143 ft | 387 kts | 328° |
| 2026-05-01 14:04 | 58.24995 | 33.18615 | 34181 ft | 386 kts | 328° |
| 2026-05-01 14:05 | 58.29156 | 33.12145 | 34179 ft | 386 kts | 328° |
| 2026-05-01 14:05 | 58.33313 | 33.05667 | 34178 ft | 386 kts | 327° |
| 2026-05-01 14:06 | 58.37445 | 32.99211 | 34176 ft | 386 kts | 327° |
| 2026-05-01 14:06 | 58.39526 | 32.95954 | 34008 ft | 387 kts | 327° |
| 2026-05-01 14:06 | 58.41602 | 32.92696 | 33786 ft | 387 kts | 327° |
| 2026-05-01 14:07 | 58.43681 | 32.89428 | 33508 ft | 388 kts | 327° |
| 2026-05-01 14:07 | 58.45761 | 32.86139 | 33040 ft | 389 kts | 327° |
| 2026-05-01 14:07 | 58.47841 | 32.82842 | 32504 ft | 389 kts | 327° |
| 2026-05-01 14:08 | 58.52022 | 32.76217 | 31494 ft | 391 kts | 326° |
| 2026-05-01 14:08 | 58.54118 | 32.72894 | 30983 ft | 393 kts | 326° |
| 2026-05-01 14:08 | 58.56226 | 32.69550 | 30475 ft | 394 kts | 326° |
| 2026-05-01 14:08 | 58.58344 | 32.66185 | 29914 ft | 396 kts | 326° |
| 2026-05-01 14:09 | 58.60463 | 32.62812 | 29357 ft | 397 kts | 326° |
| 2026-05-01 14:09 | 58.62593 | 32.59417 | 28813 ft | 399 kts | 326° |
| 2026-05-01 14:09 | 58.64731 | 32.56005 | 28290 ft | 400 kts | 326° |
| 2026-05-01 14:09 | 58.66875 | 32.52576 | 27753 ft | 402 kts | 326° |
| 2026-05-01 14:10 | 58.68949 | 32.49254 | 27217 ft | 402 kts | 326° |